sensor_id;sensor_type;location;lat;lon;timestamp;P1;durP1;ratioP1;P2;durP2;ratioP2
50104;SDS011;47690;39.202;-77.198;2024-03-08T00:01:18;1.10;;;1.08;;
50104;SDS011;47690;39.202;-77.198;2024-03-08T00:03:49;1.02;;;0.93;;
50104;SDS011;47690;39.202;-77.198;2024-03-08T00:06:21;1.13;;;1.13;;
50104;SDS011;47690;39.202;-77.198;2024-03-08T00:08:54;0.82;;;0.82;;
50104;SDS011;47690;39.202;-77.198;2024-03-08T00:11:22;2.22;;;1.10;;
50104;SDS011;47690;39.202;-77.198;2024-03-08T00:13:55;0.80;;;0.80;;
50104;SDS011;47690;39.202;-77.198;2024-03-08T00:16:23;1.13;;;0.90;;
50104;SDS011;47690;39.202;-77.198;2024-03-08T00:19:07;2.58;;;1.10;;
50104;SDS011;47690;39.202;-77.198;2024-03-08T00:21:42;1.52;;;0.98;;
50104;SDS011;47690;39.202;-77.198;2024-03-08T00:24:11;1.17;;;1.00;;
50104;SDS011;47690;39.202;-77.198;2024-03-08T00:26:42;0.90;;;0.90;;
50104;SDS011;47690;39.202;-77.198;2024-03-08T00:29:16;1.13;;;1.02;;
50104;SDS011;47690;39.202;-77.198;2024-03-08T00:31:46;1.10;;;1.10;;
50104;SDS011;47690;39.202;-77.198;2024-03-08T00:34:18;0.93;;;0.93;;
50104;SDS011;47690;39.202;-77.198;2024-03-08T00:36:47;1.00;;;1.00;;
50104;SDS011;47690;39.202;-77.198;2024-03-08T00:39:18;1.30;;;1.20;;
50104;SDS011;47690;39.202;-77.198;2024-03-08T00:41:50;1.25;;;1.17;;
50104;SDS011;47690;39.202;-77.198;2024-03-08T00:44:19;0.88;;;0.88;;
50104;SDS011;47690;39.202;-77.198;2024-03-08T00:46:49;1.08;;;1.08;;
50104;SDS011;47690;39.202;-77.198;2024-03-08T00:49:21;1.10;;;1.00;;
50104;SDS011;47690;39.202;-77.198;2024-03-08T00:51:50;1.38;;;1.30;;
50104;SDS011;47690;39.202;-77.198;2024-03-08T00:54:20;1.55;;;1.45;;
50104;SDS011;47690;39.202;-77.198;2024-03-08T00:56:49;1.45;;;1.30;;
50104;SDS011;47690;39.202;-77.198;2024-03-08T00:59:20;1.35;;;1.25;;
50104;SDS011;47690;39.202;-77.198;2024-03-08T01:01:48;0.88;;;0.85;;
50104;SDS011;47690;39.202;-77.198;2024-03-08T01:04:22;1.42;;;1.33;;
50104;SDS011;47690;39.202;-77.198;2024-03-08T01:06:51;2.05;;;1.38;;
50104;SDS011;47690;39.202;-77.198;2024-03-08T01:09:21;2.00;;;1.65;;
50104;SDS011;47690;39.202;-77.198;2024-03-08T01:11:51;2.50;;;1.77;;
50104;SDS011;47690;39.202;-77.198;2024-03-08T01:14:26;2.33;;;1.77;;
50104;SDS011;47690;39.202;-77.198;2024-03-08T01:17:06;1.50;;;1.40;;
50104;SDS011;47690;39.202;-77.198;2024-03-08T01:19:40;1.88;;;1.67;;
50104;SDS011;47690;39.202;-77.198;2024-03-08T01:22:09;3.38;;;1.73;;
50104;SDS011;47690;39.202;-77.198;2024-03-08T01:24:39;2.72;;;1.60;;
50104;SDS011;47690;39.202;-77.198;2024-03-08T01:27:14;2.15;;;1.73;;
50104;SDS011;47690;39.202;-77.198;2024-03-08T01:29:44;1.88;;;1.60;;
50104;SDS011;47690;39.202;-77.198;2024-03-08T01:32:15;2.10;;;1.75;;
50104;SDS011;47690;39.202;-77.198;2024-03-08T01:35:00;2.95;;;1.80;;
50104;SDS011;47690;39.202;-77.198;2024-03-08T01:37:42;2.10;;;1.90;;
50104;SDS011;47690;39.202;-77.198;2024-03-08T01:40:10;1.65;;;1.42;;
50104;SDS011;47690;39.202;-77.198;2024-03-08T01:42:42;1.70;;;1.50;;
50104;SDS011;47690;39.202;-77.198;2024-03-08T01:45:15;1.92;;;1.65;;
50104;SDS011;47690;39.202;-77.198;2024-03-08T01:47:44;1.40;;;1.30;;
50104;SDS011;47690;39.202;-77.198;2024-03-08T01:50:36;1.10;;;1.10;;
50104;SDS011;47690;39.202;-77.198;2024-03-08T01:53:10;1.73;;;1.63;;
50104;SDS011;47690;39.202;-77.198;2024-03-08T01:55:44;1.60;;;1.50;;
50104;SDS011;47690;39.202;-77.198;2024-03-08T01:58:16;1.65;;;1.52;;
50104;SDS011;47690;39.202;-77.198;2024-03-08T02:00:50;1.35;;;1.25;;
50104;SDS011;47690;39.202;-77.198;2024-03-08T02:03:22;1.80;;;1.30;;
50104;SDS011;47690;39.202;-77.198;2024-03-08T02:05:53;1.02;;;1.02;;
50104;SDS011;47690;39.202;-77.198;2024-03-08T02:08:24;1.13;;;1.05;;
50104;SDS011;47690;39.202;-77.198;2024-03-08T02:10:56;1.17;;;1.17;;
50104;SDS011;47690;39.202;-77.198;2024-03-08T02:13:25;1.20;;;1.10;;
50104;SDS011;47690;39.202;-77.198;2024-03-08T02:16:08;1.27;;;1.13;;
50104;SDS011;47690;39.202;-77.198;2024-03-08T02:18:43;0.90;;;0.90;;
50104;SDS011;47690;39.202;-77.198;2024-03-08T02:21:18;1.30;;;1.20;;
50104;SDS011;47690;39.202;-77.198;2024-03-08T02:23:54;1.35;;;1.17;;
50104;SDS011;47690;39.202;-77.198;2024-03-08T02:26:25;1.50;;;1.30;;
50104;SDS011;47690;39.202;-77.198;2024-03-08T02:29:09;1.20;;;1.20;;
50104;SDS011;47690;39.202;-77.198;2024-03-08T02:31:42;1.35;;;1.33;;
50104;SDS011;47690;39.202;-77.198;2024-03-08T02:34:14;1.10;;;0.93;;
50104;SDS011;47690;39.202;-77.198;2024-03-08T02:36:43;1.42;;;1.33;;
50104;SDS011;47690;39.202;-77.198;2024-03-08T02:39:17;1.27;;;1.27;;
50104;SDS011;47690;39.202;-77.198;2024-03-08T02:41:48;1.60;;;1.30;;
50104;SDS011;47690;39.202;-77.198;2024-03-08T02:44:17;1.60;;;1.50;;
50104;SDS011;47690;39.202;-77.198;2024-03-08T02:46:45;1.52;;;1.42;;
50104;SDS011;47690;39.202;-77.198;2024-03-08T02:49:19;1.60;;;1.42;;
50104;SDS011;47690;39.202;-77.198;2024-03-08T02:51:47;1.60;;;1.50;;
50104;SDS011;47690;39.202;-77.198;2024-03-08T02:54:16;1.60;;;1.50;;
50104;SDS011;47690;39.202;-77.198;2024-03-08T02:56:45;2.33;;;1.27;;
50104;SDS011;47690;39.202;-77.198;2024-03-08T02:59:19;1.48;;;1.38;;
50104;SDS011;47690;39.202;-77.198;2024-03-08T03:01:49;1.10;;;1.10;;
50104;SDS011;47690;39.202;-77.198;2024-03-08T03:04:21;1.48;;;1.38;;
50104;SDS011;47690;39.202;-77.198;2024-03-08T03:06:49;1.33;;;1.23;;
50104;SDS011;47690;39.202;-77.198;2024-03-08T03:09:18;1.00;;;1.00;;
50104;SDS011;47690;39.202;-77.198;2024-03-08T03:11:54;1.60;;;1.50;;
50104;SDS011;47690;39.202;-77.198;2024-03-08T03:14:22;1.10;;;1.10;;
50104;SDS011;47690;39.202;-77.198;2024-03-08T03:16:53;1.38;;;1.27;;
50104;SDS011;47690;39.202;-77.198;2024-03-08T03:19:21;1.20;;;1.20;;
50104;SDS011;47690;39.202;-77.198;2024-03-08T03:21:50;1.42;;;1.33;;
50104;SDS011;47690;39.202;-77.198;2024-03-08T03:24:20;1.15;;;1.15;;
50104;SDS011;47690;39.202;-77.198;2024-03-08T03:26:54;1.40;;;1.30;;
50104;SDS011;47690;39.202;-77.198;2024-03-08T03:29:23;1.05;;;1.05;;
50104;SDS011;47690;39.202;-77.198;2024-03-08T03:31:57;2.03;;;1.20;;
50104;SDS011;47690;39.202;-77.198;2024-03-08T03:34:38;1.20;;;1.10;;
50104;SDS011;47690;39.202;-77.198;2024-03-08T03:37:09;0.82;;;0.82;;
50104;SDS011;47690;39.202;-77.198;2024-03-08T03:39:40;2.10;;;1.35;;
50104;SDS011;47690;39.202;-77.198;2024-03-08T03:42:22;1.40;;;1.30;;
50104;SDS011;47690;39.202;-77.198;2024-03-08T03:44:54;1.40;;;1.30;;
50104;SDS011;47690;39.202;-77.198;2024-03-08T03:47:22;1.98;;;1.42;;
50104;SDS011;47690;39.202;-77.198;2024-03-08T03:49:53;1.10;;;1.10;;
50104;SDS011;47690;39.202;-77.198;2024-03-08T03:52:22;1.33;;;1.23;;
50104;SDS011;47690;39.202;-77.198;2024-03-08T03:54:51;1.17;;;1.13;;
50104;SDS011;47690;39.202;-77.198;2024-03-08T03:57:21;1.48;;;1.38;;
50104;SDS011;47690;39.202;-77.198;2024-03-08T03:59:51;1.98;;;1.20;;
50104;SDS011;47690;39.202;-77.198;2024-03-08T04:02:19;0.98;;;0.98;;
50104;SDS011;47690;39.202;-77.198;2024-03-08T04:04:49;1.15;;;1.15;;
50104;SDS011;47690;39.202;-77.198;2024-03-08T04:07:17;1.85;;;1.20;;
50104;SDS011;47690;39.202;-77.198;2024-03-08T04:09:47;0.95;;;0.95;;
50104;SDS011;47690;39.202;-77.198;2024-03-08T04:12:18;0.90;;;0.90;;
50104;SDS011;47690;39.202;-77.198;2024-03-08T04:14:48;1.20;;;1.13;;
50104;SDS011;47690;39.202;-77.198;2024-03-08T04:17:17;1.17;;;1.17;;
50104;SDS011;47690;39.202;-77.198;2024-03-08T04:19:47;1.48;;;1.38;;
50104;SDS011;47690;39.202;-77.198;2024-03-08T04:22:18;1.30;;;1.20;;
50104;SDS011;47690;39.202;-77.198;2024-03-08T04:24:48;1.35;;;1.25;;
50104;SDS011;47690;39.202;-77.198;2024-03-08T04:27:16;1.40;;;1.30;;
50104;SDS011;47690;39.202;-77.198;2024-03-08T04:29:45;1.20;;;1.20;;
50104;SDS011;47690;39.202;-77.198;2024-03-08T04:32:15;1.33;;;1.30;;
50104;SDS011;47690;39.202;-77.198;2024-03-08T04:34:47;1.05;;;1.05;;
50104;SDS011;47690;39.202;-77.198;2024-03-08T04:37:17;1.38;;;1.30;;
50104;SDS011;47690;39.202;-77.198;2024-03-08T04:39:52;1.95;;;1.30;;
50104;SDS011;47690;39.202;-77.198;2024-03-08T04:42:22;1.30;;;1.15;;
50104;SDS011;47690;39.202;-77.198;2024-03-08T04:44:53;1.85;;;1.20;;
50104;SDS011;47690;39.202;-77.198;2024-03-08T04:47:23;1.40;;;1.33;;
50104;SDS011;47690;39.202;-77.198;2024-03-08T04:49:57;1.13;;;1.13;;
50104;SDS011;47690;39.202;-77.198;2024-03-08T04:52:36;1.23;;;1.13;;
50104;SDS011;47690;39.202;-77.198;2024-03-08T04:55:08;1.52;;;1.40;;
50104;SDS011;47690;39.202;-77.198;2024-03-08T04:57:48;1.35;;;1.20;;
50104;SDS011;47690;39.202;-77.198;2024-03-08T05:00:21;1.40;;;1.30;;
50104;SDS011;47690;39.202;-77.198;2024-03-08T05:02:55;1.50;;;1.40;;
50104;SDS011;47690;39.202;-77.198;2024-03-08T05:05:27;1.50;;;1.40;;
50104;SDS011;47690;39.202;-77.198;2024-03-08T05:07:56;1.35;;;1.23;;
50104;SDS011;47690;39.202;-77.198;2024-03-08T05:10:27;1.20;;;1.20;;
50104;SDS011;47690;39.202;-77.198;2024-03-08T05:12:56;1.77;;;1.67;;
50104;SDS011;47690;39.202;-77.198;2024-03-08T05:15:26;1.27;;;1.20;;
50104;SDS011;47690;39.202;-77.198;2024-03-08T05:17:55;1.55;;;1.40;;
50104;SDS011;47690;39.202;-77.198;2024-03-08T05:20:28;1.38;;;1.30;;
50104;SDS011;47690;39.202;-77.198;2024-03-08T05:23:10;1.45;;;1.35;;
50104;SDS011;47690;39.202;-77.198;2024-03-08T05:25:39;1.55;;;1.35;;
50104;SDS011;47690;39.202;-77.198;2024-03-08T05:28:11;1.35;;;1.25;;
50104;SDS011;47690;39.202;-77.198;2024-03-08T05:30:44;1.30;;;1.30;;
50104;SDS011;47690;39.202;-77.198;2024-03-08T05:33:14;1.33;;;1.33;;
50104;SDS011;47690;39.202;-77.198;2024-03-08T05:35:46;1.50;;;1.40;;
50104;SDS011;47690;39.202;-77.198;2024-03-08T05:38:19;1.77;;;1.67;;
50104;SDS011;47690;39.202;-77.198;2024-03-08T05:40:49;2.00;;;1.80;;
50104;SDS011;47690;39.202;-77.198;2024-03-08T05:43:19;1.70;;;1.60;;
50104;SDS011;47690;39.202;-77.198;2024-03-08T05:45:49;1.63;;;1.52;;
50104;SDS011;47690;39.202;-77.198;2024-03-08T05:48:23;1.92;;;1.83;;
50104;SDS011;47690;39.202;-77.198;2024-03-08T05:50:54;1.20;;;1.13;;
50104;SDS011;47690;39.202;-77.198;2024-03-08T05:53:28;1.58;;;1.48;;
50104;SDS011;47690;39.202;-77.198;2024-03-08T05:56:10;1.58;;;1.48;;
50104;SDS011;47690;39.202;-77.198;2024-03-08T05:58:43;1.50;;;1.40;;
50104;SDS011;47690;39.202;-77.198;2024-03-08T06:01:14;1.90;;;1.67;;
50104;SDS011;47690;39.202;-77.198;2024-03-08T06:03:43;1.55;;;1.23;;
50104;SDS011;47690;39.202;-77.198;2024-03-08T06:06:16;3.45;;;1.40;;
50104;SDS011;47690;39.202;-77.198;2024-03-08T06:08:47;1.10;;;1.10;;
50104;SDS011;47690;39.202;-77.198;2024-03-08T06:11:19;1.48;;;1.38;;
50104;SDS011;47690;39.202;-77.198;2024-03-08T06:13:48;1.40;;;1.30;;
50104;SDS011;47690;39.202;-77.198;2024-03-08T06:16:18;1.38;;;1.30;;
50104;SDS011;47690;39.202;-77.198;2024-03-08T06:18:47;1.95;;;1.20;;
50104;SDS011;47690;39.202;-77.198;2024-03-08T06:21:19;1.60;;;1.50;;
50104;SDS011;47690;39.202;-77.198;2024-03-08T06:23:49;1.70;;;1.60;;
50104;SDS011;47690;39.202;-77.198;2024-03-08T06:26:27;1.48;;;1.38;;
50104;SDS011;47690;39.202;-77.198;2024-03-08T06:29:08;1.52;;;1.42;;
50104;SDS011;47690;39.202;-77.198;2024-03-08T06:31:40;1.52;;;1.42;;
50104;SDS011;47690;39.202;-77.198;2024-03-08T06:34:14;1.60;;;1.50;;
50104;SDS011;47690;39.202;-77.198;2024-03-08T06:36:46;1.67;;;1.58;;
50104;SDS011;47690;39.202;-77.198;2024-03-08T06:39:17;2.38;;;1.50;;
50104;SDS011;47690;39.202;-77.198;2024-03-08T06:41:46;1.50;;;1.40;;
50104;SDS011;47690;39.202;-77.198;2024-03-08T06:44:15;2.00;;;1.80;;
50104;SDS011;47690;39.202;-77.198;2024-03-08T06:46:45;1.83;;;1.73;;
50104;SDS011;47690;39.202;-77.198;2024-03-08T06:49:14;2.05;;;1.83;;
50104;SDS011;47690;39.202;-77.198;2024-03-08T06:51:43;1.85;;;1.70;;
50104;SDS011;47690;39.202;-77.198;2024-03-08T06:54:14;1.67;;;1.58;;
50104;SDS011;47690;39.202;-77.198;2024-03-08T06:56:42;1.70;;;1.60;;
50104;SDS011;47690;39.202;-77.198;2024-03-08T06:59:13;1.70;;;1.60;;
50104;SDS011;47690;39.202;-77.198;2024-03-08T07:01:42;1.52;;;1.42;;
50104;SDS011;47690;39.202;-77.198;2024-03-08T07:04:13;1.80;;;1.50;;
50104;SDS011;47690;39.202;-77.198;2024-03-08T07:06:43;1.90;;;1.52;;
50104;SDS011;47690;39.202;-77.198;2024-03-08T07:09:16;1.80;;;1.67;;
50104;SDS011;47690;39.202;-77.198;2024-03-08T07:11:46;1.80;;;1.70;;
50104;SDS011;47690;39.202;-77.198;2024-03-08T07:14:15;3.05;;;1.90;;
50104;SDS011;47690;39.202;-77.198;2024-03-08T07:16:47;2.15;;;1.98;;
50104;SDS011;47690;39.202;-77.198;2024-03-08T07:19:18;2.00;;;1.80;;
50104;SDS011;47690;39.202;-77.198;2024-03-08T07:21:47;2.25;;;2.00;;
50104;SDS011;47690;39.202;-77.198;2024-03-08T07:24:16;2.10;;;1.90;;
50104;SDS011;47690;39.202;-77.198;2024-03-08T07:26:45;2.20;;;1.90;;
50104;SDS011;47690;39.202;-77.198;2024-03-08T07:29:20;1.90;;;1.80;;
50104;SDS011;47690;39.202;-77.198;2024-03-08T07:31:49;1.90;;;1.80;;
50104;SDS011;47690;39.202;-77.198;2024-03-08T07:37:16;2.10;;;1.83;;
50104;SDS011;47690;39.202;-77.198;2024-03-08T07:39:48;1.90;;;1.80;;
50104;SDS011;47690;39.202;-77.198;2024-03-08T07:42:19;2.00;;;1.80;;
50104;SDS011;47690;39.202;-77.198;2024-03-08T07:44:52;1.80;;;1.70;;
50104;SDS011;47690;39.202;-77.198;2024-03-08T07:47:20;1.70;;;1.60;;
50104;SDS011;47690;39.202;-77.198;2024-03-08T07:49:51;1.90;;;1.75;;
50104;SDS011;47690;39.202;-77.198;2024-03-08T07:52:21;1.80;;;1.70;;
50104;SDS011;47690;39.202;-77.198;2024-03-08T07:54:52;1.98;;;1.88;;
50104;SDS011;47690;39.202;-77.198;2024-03-08T07:57:22;1.80;;;1.70;;
50104;SDS011;47690;39.202;-77.198;2024-03-08T07:59:51;1.70;;;1.60;;
50104;SDS011;47690;39.202;-77.198;2024-03-08T08:02:20;1.80;;;1.70;;
50104;SDS011;47690;39.202;-77.198;2024-03-08T08:04:49;1.83;;;1.60;;
50104;SDS011;47690;39.202;-77.198;2024-03-08T08:07:17;1.80;;;1.70;;
50104;SDS011;47690;39.202;-77.198;2024-03-08T08:09:46;1.77;;;1.67;;
50104;SDS011;47690;39.202;-77.198;2024-03-08T08:12:17;1.80;;;1.70;;
50104;SDS011;47690;39.202;-77.198;2024-03-08T08:14:46;1.65;;;1.55;;
50104;SDS011;47690;39.202;-77.198;2024-03-08T08:17:17;1.52;;;1.42;;
50104;SDS011;47690;39.202;-77.198;2024-03-08T08:19:46;1.80;;;1.70;;
50104;SDS011;47690;39.202;-77.198;2024-03-08T08:22:17;1.50;;;1.40;;
50104;SDS011;47690;39.202;-77.198;2024-03-08T08:24:46;1.98;;;1.77;;
50104;SDS011;47690;39.202;-77.198;2024-03-08T08:27:17;1.83;;;1.70;;
50104;SDS011;47690;39.202;-77.198;2024-03-08T08:29:47;1.70;;;1.60;;
50104;SDS011;47690;39.202;-77.198;2024-03-08T08:32:18;1.75;;;1.65;;
50104;SDS011;47690;39.202;-77.198;2024-03-08T08:34:54;2.00;;;1.80;;
50104;SDS011;47690;39.202;-77.198;2024-03-08T08:37:43;2.45;;;1.80;;
50104;SDS011;47690;39.202;-77.198;2024-03-08T08:40:16;1.75;;;1.65;;
50104;SDS011;47690;39.202;-77.198;2024-03-08T08:42:51;2.47;;;1.60;;
50104;SDS011;47690;39.202;-77.198;2024-03-08T08:45:23;1.60;;;1.50;;
50104;SDS011;47690;39.202;-77.198;2024-03-08T08:47:54;1.70;;;1.60;;
50104;SDS011;47690;39.202;-77.198;2024-03-08T08:50:39;1.65;;;1.55;;
50104;SDS011;47690;39.202;-77.198;2024-03-08T08:53:11;1.67;;;1.58;;
50104;SDS011;47690;39.202;-77.198;2024-03-08T08:55:46;1.85;;;1.75;;
50104;SDS011;47690;39.202;-77.198;2024-03-08T08:58:17;1.85;;;1.70;;
50104;SDS011;47690;39.202;-77.198;2024-03-08T09:00:50;1.83;;;1.73;;
50104;SDS011;47690;39.202;-77.198;2024-03-08T09:03:44;1.73;;;1.63;;
50104;SDS011;47690;39.202;-77.198;2024-03-08T09:06:18;1.80;;;1.55;;
50104;SDS011;47690;39.202;-77.198;2024-03-08T09:08:48;1.70;;;1.60;;
50104;SDS011;47690;39.202;-77.198;2024-03-08T09:11:18;1.85;;;1.75;;
50104;SDS011;47690;39.202;-77.198;2024-03-08T09:13:47;1.95;;;1.75;;
50104;SDS011;47690;39.202;-77.198;2024-03-08T09:16:17;1.48;;;1.38;;
50104;SDS011;47690;39.202;-77.198;2024-03-08T09:18:47;1.52;;;1.40;;
50104;SDS011;47690;39.202;-77.198;2024-03-08T09:21:22;1.70;;;1.60;;
50104;SDS011;47690;39.202;-77.198;2024-03-08T09:24:10;1.70;;;1.60;;
50104;SDS011;47690;39.202;-77.198;2024-03-08T09:26:45;1.60;;;1.50;;
50104;SDS011;47690;39.202;-77.198;2024-03-08T09:29:14;1.73;;;1.63;;
50104;SDS011;47690;39.202;-77.198;2024-03-08T09:31:46;1.77;;;1.67;;
50104;SDS011;47690;39.202;-77.198;2024-03-08T09:34:17;1.85;;;1.65;;
50104;SDS011;47690;39.202;-77.198;2024-03-08T09:36:56;1.92;;;1.83;;
50104;SDS011;47690;39.202;-77.198;2024-03-08T09:39:27;2.00;;;1.80;;
50104;SDS011;47690;39.202;-77.198;2024-03-08T09:42:06;1.63;;;1.52;;
50104;SDS011;47690;39.202;-77.198;2024-03-08T09:44:39;1.80;;;1.70;;
50104;SDS011;47690;39.202;-77.198;2024-03-08T09:47:18;1.90;;;1.70;;
50104;SDS011;47690;39.202;-77.198;2024-03-08T09:49:52;1.80;;;1.70;;
50104;SDS011;47690;39.202;-77.198;2024-03-08T09:52:23;1.58;;;1.48;;
50104;SDS011;47690;39.202;-77.198;2024-03-08T09:54:53;1.80;;;1.70;;
50104;SDS011;47690;39.202;-77.198;2024-03-08T09:57:25;2.08;;;1.38;;
50104;SDS011;47690;39.202;-77.198;2024-03-08T09:59:55;1.65;;;1.55;;
50104;SDS011;47690;39.202;-77.198;2024-03-08T10:02:24;1.77;;;1.67;;
50104;SDS011;47690;39.202;-77.198;2024-03-08T10:04:53;1.80;;;1.70;;
50104;SDS011;47690;39.202;-77.198;2024-03-08T10:07:24;1.98;;;1.80;;
50104;SDS011;47690;39.202;-77.198;2024-03-08T10:09:55;1.90;;;1.70;;
50104;SDS011;47690;39.202;-77.198;2024-03-08T10:12:26;3.10;;;1.90;;
50104;SDS011;47690;39.202;-77.198;2024-03-08T10:15:01;1.60;;;1.50;;
50104;SDS011;47690;39.202;-77.198;2024-03-08T10:17:38;1.73;;;1.40;;
50104;SDS011;47690;39.202;-77.198;2024-03-08T10:20:16;1.70;;;1.60;;
50104;SDS011;47690;39.202;-77.198;2024-03-08T10:22:48;2.20;;;1.48;;
50104;SDS011;47690;39.202;-77.198;2024-03-08T10:25:36;1.80;;;1.70;;
50104;SDS011;47690;39.202;-77.198;2024-03-08T10:28:07;1.70;;;1.60;;
50104;SDS011;47690;39.202;-77.198;2024-03-08T10:30:49;1.83;;;1.70;;
50104;SDS011;47690;39.202;-77.198;2024-03-08T10:33:18;1.90;;;1.70;;
50104;SDS011;47690;39.202;-77.198;2024-03-08T10:35:48;1.50;;;1.40;;
50104;SDS011;47690;39.202;-77.198;2024-03-08T10:38:17;1.70;;;1.60;;
50104;SDS011;47690;39.202;-77.198;2024-03-08T10:40:56;1.80;;;1.70;;
50104;SDS011;47690;39.202;-77.198;2024-03-08T10:43:26;1.73;;;1.63;;
50104;SDS011;47690;39.202;-77.198;2024-03-08T10:46:14;1.70;;;1.60;;
50104;SDS011;47690;39.202;-77.198;2024-03-08T10:48:55;1.60;;;1.50;;
50104;SDS011;47690;39.202;-77.198;2024-03-08T10:51:27;1.60;;;1.50;;
50104;SDS011;47690;39.202;-77.198;2024-03-08T10:54:10;1.50;;;1.40;;
50104;SDS011;47690;39.202;-77.198;2024-03-08T10:56:44;1.98;;;1.83;;
50104;SDS011;47690;39.202;-77.198;2024-03-08T10:59:18;1.85;;;1.75;;
50104;SDS011;47690;39.202;-77.198;2024-03-08T11:01:48;1.73;;;1.63;;
50104;SDS011;47690;39.202;-77.198;2024-03-08T11:04:18;1.95;;;1.85;;
50104;SDS011;47690;39.202;-77.198;2024-03-08T11:06:51;2.03;;;1.92;;
50104;SDS011;47690;39.202;-77.198;2024-03-08T11:09:38;2.00;;;1.80;;
50104;SDS011;47690;39.202;-77.198;2024-03-08T11:14:53;1.80;;;1.70;;
50104;SDS011;47690;39.202;-77.198;2024-03-08T11:20:12;1.77;;;1.67;;
50104;SDS011;47690;39.202;-77.198;2024-03-08T11:22:52;1.73;;;1.63;;
50104;SDS011;47690;39.202;-77.198;2024-03-08T11:28:18;2.28;;;1.73;;
50104;SDS011;47690;39.202;-77.198;2024-03-08T11:33:42;1.85;;;1.75;;
50104;SDS011;47690;39.202;-77.198;2024-03-08T11:36:24;1.73;;;1.63;;
50104;SDS011;47690;39.202;-77.198;2024-03-08T11:38:53;2.30;;;1.77;;
50104;SDS011;47690;39.202;-77.198;2024-03-08T11:41:25;1.80;;;1.70;;
50104;SDS011;47690;39.202;-77.198;2024-03-08T11:44:07;1.75;;;1.65;;
50104;SDS011;47690;39.202;-77.198;2024-03-08T11:46:41;2.55;;;1.70;;
50104;SDS011;47690;39.202;-77.198;2024-03-08T11:49:15;2.00;;;1.90;;
50104;SDS011;47690;39.202;-77.198;2024-03-08T11:51:45;1.70;;;1.60;;
50104;SDS011;47690;39.202;-77.198;2024-03-08T11:54:15;1.83;;;1.73;;
50104;SDS011;47690;39.202;-77.198;2024-03-08T11:56:44;1.95;;;1.77;;
50104;SDS011;47690;39.202;-77.198;2024-03-08T11:59:16;1.83;;;1.73;;
50104;SDS011;47690;39.202;-77.198;2024-03-08T12:01:57;1.77;;;1.67;;
50104;SDS011;47690;39.202;-77.198;2024-03-08T12:04:38;1.73;;;1.63;;
50104;SDS011;47690;39.202;-77.198;2024-03-08T12:07:11;1.80;;;1.70;;
50104;SDS011;47690;39.202;-77.198;2024-03-08T12:09:43;1.85;;;1.75;;
50104;SDS011;47690;39.202;-77.198;2024-03-08T12:12:15;1.85;;;1.63;;
50104;SDS011;47690;39.202;-77.198;2024-03-08T12:14:44;1.90;;;1.80;;
50104;SDS011;47690;39.202;-77.198;2024-03-08T12:17:18;1.90;;;1.80;;
50104;SDS011;47690;39.202;-77.198;2024-03-08T12:19:47;1.77;;;1.67;;
50104;SDS011;47690;39.202;-77.198;2024-03-08T12:22:24;2.10;;;1.90;;
50104;SDS011;47690;39.202;-77.198;2024-03-08T12:25:06;2.25;;;2.05;;
50104;SDS011;47690;39.202;-77.198;2024-03-08T12:27:40;2.28;;;2.08;;
50104;SDS011;47690;39.202;-77.198;2024-03-08T12:30:26;2.88;;;2.13;;
50104;SDS011;47690;39.202;-77.198;2024-03-08T12:33:10;2.30;;;2.10;;
50104;SDS011;47690;39.202;-77.198;2024-03-08T12:35:52;2.30;;;2.10;;
50104;SDS011;47690;39.202;-77.198;2024-03-08T12:38:44;2.10;;;1.90;;
50104;SDS011;47690;39.202;-77.198;2024-03-08T12:41:16;2.05;;;1.92;;
50104;SDS011;47690;39.202;-77.198;2024-03-08T12:43:46;2.38;;;2.00;;
50104;SDS011;47690;39.202;-77.198;2024-03-08T12:46:20;2.20;;;2.00;;
50104;SDS011;47690;39.202;-77.198;2024-03-08T12:49:09;2.08;;;1.90;;
50104;SDS011;47690;39.202;-77.198;2024-03-08T12:51:48;2.88;;;1.95;;
50104;SDS011;47690;39.202;-77.198;2024-03-08T12:54:20;2.30;;;2.10;;
50104;SDS011;47690;39.202;-77.198;2024-03-08T12:56:52;2.60;;;2.28;;
50104;SDS011;47690;39.202;-77.198;2024-03-08T12:59:23;2.40;;;2.08;;
50104;SDS011;47690;39.202;-77.198;2024-03-08T13:01:52;2.25;;;2.05;;
50104;SDS011;47690;39.202;-77.198;2024-03-08T13:04:23;2.17;;;1.95;;
50104;SDS011;47690;39.202;-77.198;2024-03-08T13:06:54;2.40;;;2.15;;
50104;SDS011;47690;39.202;-77.198;2024-03-08T13:09:23;2.20;;;2.00;;
50104;SDS011;47690;39.202;-77.198;2024-03-08T13:11:55;3.25;;;2.15;;
50104;SDS011;47690;39.202;-77.198;2024-03-08T13:14:26;2.20;;;2.00;;
50104;SDS011;47690;39.202;-77.198;2024-03-08T13:16:57;2.45;;;2.25;;
50104;SDS011;47690;39.202;-77.198;2024-03-08T13:19:41;2.20;;;2.00;;
50104;SDS011;47690;39.202;-77.198;2024-03-08T13:22:11;2.33;;;2.13;;
50104;SDS011;47690;39.202;-77.198;2024-03-08T13:24:45;2.30;;;2.10;;
50104;SDS011;47690;39.202;-77.198;2024-03-08T13:27:18;2.40;;;2.20;;
50104;SDS011;47690;39.202;-77.198;2024-03-08T13:29:51;2.22;;;2.03;;
50104;SDS011;47690;39.202;-77.198;2024-03-08T13:32:24;2.20;;;2.00;;
50104;SDS011;47690;39.202;-77.198;2024-03-08T13:34:56;2.50;;;2.28;;
50104;SDS011;47690;39.202;-77.198;2024-03-08T13:37:27;2.20;;;2.00;;
50104;SDS011;47690;39.202;-77.198;2024-03-08T13:39:55;2.20;;;2.00;;
50104;SDS011;47690;39.202;-77.198;2024-03-08T13:42:26;2.38;;;2.10;;
50104;SDS011;47690;39.202;-77.198;2024-03-08T13:44:55;2.92;;;2.03;;
50104;SDS011;47690;39.202;-77.198;2024-03-08T13:47:24;2.10;;;1.90;;
50104;SDS011;47690;39.202;-77.198;2024-03-08T13:49:54;2.20;;;2.00;;
50104;SDS011;47690;39.202;-77.198;2024-03-08T13:52:23;2.05;;;1.85;;
50104;SDS011;47690;39.202;-77.198;2024-03-08T13:54:55;1.80;;;1.70;;
50104;SDS011;47690;39.202;-77.198;2024-03-08T13:57:25;1.75;;;1.65;;
50104;SDS011;47690;39.202;-77.198;2024-03-08T13:59:54;2.20;;;2.00;;
50104;SDS011;47690;39.202;-77.198;2024-03-08T14:02:39;2.33;;;2.13;;
50104;SDS011;47690;39.202;-77.198;2024-03-08T14:05:20;1.90;;;1.80;;
50104;SDS011;47690;39.202;-77.198;2024-03-08T14:07:56;2.17;;;1.83;;
50104;SDS011;47690;39.202;-77.198;2024-03-08T14:10:26;2.15;;;1.95;;
50104;SDS011;47690;39.202;-77.198;2024-03-08T14:13:08;1.98;;;1.83;;
50104;SDS011;47690;39.202;-77.198;2024-03-08T14:15:37;2.35;;;2.00;;
50104;SDS011;47690;39.202;-77.198;2024-03-08T14:18:12;2.00;;;1.83;;
50104;SDS011;47690;39.202;-77.198;2024-03-08T14:20:53;1.83;;;1.63;;
50104;SDS011;47690;39.202;-77.198;2024-03-08T14:23:23;2.20;;;2.00;;
50104;SDS011;47690;39.202;-77.198;2024-03-08T14:25:52;1.80;;;1.70;;
50104;SDS011;47690;39.202;-77.198;2024-03-08T14:28:22;2.92;;;1.70;;
50104;SDS011;47690;39.202;-77.198;2024-03-08T14:30:53;1.88;;;1.77;;
50104;SDS011;47690;39.202;-77.198;2024-03-08T14:33:26;2.15;;;1.90;;
50104;SDS011;47690;39.202;-77.198;2024-03-08T14:35:56;2.28;;;1.90;;
50104;SDS011;47690;39.202;-77.198;2024-03-08T14:38:38;1.73;;;1.63;;
50104;SDS011;47690;39.202;-77.198;2024-03-08T14:41:09;1.80;;;1.70;;
50104;SDS011;47690;39.202;-77.198;2024-03-08T14:43:43;1.80;;;1.70;;
50104;SDS011;47690;39.202;-77.198;2024-03-08T14:46:22;1.90;;;1.80;;
50104;SDS011;47690;39.202;-77.198;2024-03-08T14:48:51;2.00;;;1.80;;
50104;SDS011;47690;39.202;-77.198;2024-03-08T14:51:25;1.80;;;1.70;;
50104;SDS011;47690;39.202;-77.198;2024-03-08T14:53:54;1.83;;;1.73;;
50104;SDS011;47690;39.202;-77.198;2024-03-08T14:56:25;1.92;;;1.80;;
50104;SDS011;47690;39.202;-77.198;2024-03-08T14:58:55;1.90;;;1.75;;
50104;SDS011;47690;39.202;-77.198;2024-03-08T15:01:26;1.85;;;1.73;;
50104;SDS011;47690;39.202;-77.198;2024-03-08T15:04:17;1.75;;;1.65;;
50104;SDS011;47690;39.202;-77.198;2024-03-08T15:06:53;1.80;;;1.70;;